DLH133 EDDF-GMMN
Flight info
| Callsign | DLH133 |
|---|---|
| Flight time | N/A |
| Altitude | 37000 |
| Route | ANEKI2L/18 ANEKI Y163 HERBI Y164 MOPAN DCT LUTIX DCT BENOT DCT NEMOS DCT NINTU DCT MEBAK DCT REPSI DCT LERGA DCT MINSO DCT NARAK DCT AGN DCT MAQAB DCT TIVLI N869 GALTO UB11 TUSOR TUSOR3A |
| Aircraft | A320/M-SDE3FGHIRWY/LB1 |
Departure
| Time | 2026-05-07 15:15 |
|---|---|
| Airport | Frankfurt Main Airport (EDDF) |
Arrival
| Time | N/A |
|---|---|
| Airport | Mohammed V International Airport (GMMN) |
| Time | Latitude | Longitude | Altitude | Speed | Heading |
|---|---|---|---|---|---|
| 2026-05-07 14:30 | 50.04707 | 8.56836 | 338 ft | 0 kts | 294° |
| 2026-05-07 14:32 | 50.04704 | 8.56846 | 359 ft | 0 kts | 294° |
| 2026-05-07 15:02 | 50.04703 | 8.56847 | 356 ft | 1 kts | 294° |
| 2026-05-07 15:03 | 50.04693 | 8.56883 | 361 ft | 4 kts | 294° |
| 2026-05-07 15:03 | 50.04684 | 8.56913 | 362 ft | 4 kts | 288° |
| 2026-05-07 15:03 | 50.04684 | 8.56949 | 362 ft | 4 kts | 227° |
| 2026-05-07 15:03 | 50.04699 | 8.56967 | 365 ft | 0 kts | 204° |
| 2026-05-07 15:04 | 50.04681 | 8.56954 | 361 ft | 4 kts | 204° |
| 2026-05-07 15:04 | 50.04656 | 8.56936 | 358 ft | 4 kts | 204° |
| 2026-05-07 15:04 | 50.04647 | 8.56930 | 360 ft | 0 kts | 204° |
| 2026-05-07 15:06 | 50.04643 | 8.56927 | 363 ft | 3 kts | 204° |
| 2026-05-07 15:07 | 50.04601 | 8.56908 | 356 ft | 8 kts | 194° |
| 2026-05-07 15:07 | 50.04567 | 8.56895 | 362 ft | 1 kts | 193° |
| 2026-05-07 15:07 | 50.04557 | 8.56892 | 360 ft | 4 kts | 192° |
| 2026-05-07 15:07 | 50.04499 | 8.56872 | 359 ft | 13 kts | 195° |
| 2026-05-07 15:08 | 50.04429 | 8.56736 | 360 ft | 22 kts | 252° |
| 2026-05-07 15:08 | 50.04368 | 8.56478 | 362 ft | 28 kts | 250° |
| 2026-05-07 15:08 | 50.04299 | 8.56183 | 359 ft | 29 kts | 250° |
| 2026-05-07 15:08 | 50.04226 | 8.55886 | 357 ft | 29 kts | 249° |
| 2026-05-07 15:09 | 50.04154 | 8.55587 | 353 ft | 30 kts | 249° |
| 2026-05-07 15:09 | 50.04085 | 8.55291 | 354 ft | 29 kts | 250° |
| 2026-05-07 15:09 | 50.04014 | 8.54999 | 355 ft | 28 kts | 249° |
| 2026-05-07 15:09 | 50.03942 | 8.54709 | 353 ft | 29 kts | 248° |
| 2026-05-07 15:10 | 50.03866 | 8.54410 | 351 ft | 30 kts | 247° |
| 2026-05-07 15:10 | 50.03776 | 8.54118 | 348 ft | 30 kts | 249° |
| 2026-05-07 15:10 | 50.03701 | 8.53817 | 347 ft | 30 kts | 249° |
| 2026-05-07 15:10 | 50.03628 | 8.53509 | 339 ft | 30 kts | 249° |
| 2026-05-07 15:11 | 50.03565 | 8.53251 | 339 ft | 26 kts | 248° |
| 2026-05-07 15:11 | 50.03499 | 8.52981 | 335 ft | 27 kts | 249° |
| 2026-05-07 15:11 | 50.03449 | 8.52783 | 336 ft | 11 kts | 246° |
| 2026-05-07 15:11 | 50.03436 | 8.52738 | 331 ft | 0 kts | 246° |
| 2026-05-07 15:12 | 50.03435 | 8.52734 | 331 ft | 3 kts | 246° |
| 2026-05-07 15:13 | 50.03409 | 8.52636 | 333 ft | 12 kts | 246° |
| 2026-05-07 15:13 | 50.03331 | 8.52593 | 335 ft | 13 kts | 179° |
| 2026-05-07 15:13 | 50.03318 | 8.52594 | 335 ft | 0 kts | 178° |
| 2026-05-07 15:14 | 50.03261 | 8.52596 | 334 ft | 23 kts | 179° |
| 2026-05-07 15:14 | 50.02866 | 8.52598 | 333 ft | 90 kts | 180° |
| 2026-05-07 15:14 | 50.02035 | 8.52605 | 333 ft | 144 kts | 180° |
| 2026-05-07 15:14 | 50.00893 | 8.52615 | 423 ft | 177 kts | 181° |
| 2026-05-07 15:15 | 49.99766 | 8.52665 | 1122 ft | 173 kts | 179° |
| 2026-05-07 15:15 | 49.98536 | 8.52744 | 1826 ft | 181 kts | 178° |
| 2026-05-07 15:15 | 49.97223 | 8.52837 | 2249 ft | 203 kts | 178° |
| 2026-05-07 15:15 | 49.95715 | 8.52946 | 2684 ft | 224 kts | 177° |
| 2026-05-07 15:16 | 49.94114 | 8.53060 | 3388 ft | 234 kts | 178° |